Список аэропортов
Фактическая погода:

26 июня, 23:00
Температура: +31°C (+31.0*)
Ветер: северный 5 м/с
Давление: *764 мм
Без существ. явл.
Время (МСК)Темп. СВетерВлажностьДавлениеОблачностьОсадки
21:00+29С, 1 м/с50%1020 гПаясно
22:00+28С, 2 м/с60%1021 гПаясно
23:00+26С, 2 м/с63%1021 гПаясно
27 июня
00:00+25С, 2 м/с63%1022 гПаясно
01:00+25СЗ, 2 м/с61%1022 гПаясно
02:00+24СЗ, 3 м/с56%1022 гПаясно
03:00+24СЗ, 3 м/с52%1021 гПаясно
04:00+24СЗ, 3 м/с50%1021 гПаясно
05:00+24СЗ, 3 м/с53%1021 гПаясно
06:00+23СЗ, 3 м/с59%1021 гПаясно
07:00+24СЗ, 3 м/с61%1020 гПаясно
08:00+25СЗ, 3 м/с59%1020 гПаясно
09:00+27СЗ, 2 м/с55%1019 гПаясно
10:00+29СЗ, 2 м/с55%1019 гПаясно
11:00+31З, 1 м/с48%1019 гПаясно
12:00+32Ю, 2 м/с46%1018 гПаясно
13:00+32Ю, 3 м/с42%1018 гПаясно
14:00+33Ю, 3 м/с40%1017 гПаясно
15:00+34Ю, 4 м/с39%1017 гПаясно
16:00+34Ю, 4 м/с38%1016 гПаясно
17:00+34Ю, 4 м/с38%1015 гПаясно
18:00+34Ю, 3 м/с35%1015 гПаясно
19:00+33Ю, 3 м/с36%1014 гПаясно
20:00+32Ю, 1 м/с43%1014 гПаясно
21:00+30В, 2 м/с54%1015 гПаясно
22:00+28СВ, 1 м/с65%1015 гПаясно
23:00+26С, 1 м/с73%1016 гПаясно
28 июня
00:00+26СЗ, 1 м/с76%1016 гПаясно
01:00+25С, 1 м/с75%1016 гПаясно
02:00+24СЗ, 2 м/с70%1015 гПаясно
03:00+24С, 3 м/с67%1015 гПаясно
04:00+23С, 3 м/с70%1015 гПаясно
05:00+23С, 2 м/с74%1014 гПаясно
06:00+22С, 2 м/с76%1014 гПамалооблачно
07:00+23СЗ, 2 м/с75%1014 гПамалооблачно
08:00+25СЗ, 2 м/с70%1014 гПамалооблачно
09:00+28СЗ, 2 м/с61%1014 гПамалооблачно
10:00+30СЗ, 3 м/с44%1013 гПамалооблачно
11:00+31С, 5 м/с38%1013 гПамалооблачно
12:00+32С, 5 м/с31%1013 гПаясно
13:00+33С, 4 м/с34%1012 гПаясно
14:00+34С, 2 м/с32%1012 гПаясно
15:00+35СЗ, 2 м/с32%1012 гПаясно
16:00+35СЗ, 2 м/с31%1011 гПаясно
17:00+35С, 2 м/с25%1011 гПаясно
18:00+35СВ, 2 м/с27%1011 гПаясно
19:00+34В, 3 м/с33%1011 гПамалооблачно
20:00+32В, 3 м/с37%1011 гПамалооблачно
21:00+30С, 2 м/с45%1012 гПамалооблачно